createdAt,value
2022-11-25T05:02:37.436Z,1.16
2022-11-25T05:05:41.523Z,1.18
2022-11-25T05:08:44.068Z,1.16
2022-11-25T05:11:47.622Z,1.12
2022-11-25T05:14:50.244Z,1.13
2022-11-25T05:17:55.170Z,1.22
2022-11-25T05:21:05.300Z,1.15
2022-11-25T05:24:10.014Z,1.10
2022-11-25T05:27:13.004Z,1.07
2022-11-25T05:30:16.098Z,1.09
2022-11-25T05:33:18.814Z,1.06
2022-11-25T05:36:23.943Z,1.11
2022-11-25T05:39:26.704Z,1.45
2022-11-25T05:42:32.718Z,1.34
2022-11-25T05:45:38.138Z,1.46
2022-11-25T05:48:42.151Z,1.32
2022-11-25T05:51:45.150Z,1.20
2022-11-25T05:54:50.489Z,1.09
2022-11-25T05:57:55.913Z,0.96
2022-11-25T06:00:59.433Z,0.87
2022-11-25T06:04:04.543Z,0.78
2022-11-25T06:07:07.510Z,0.68
2022-11-25T06:10:10.998Z,0.65
2022-11-25T06:13:15.154Z,0.66
2022-11-25T06:16:21.348Z,0.80
2022-11-25T06:19:24.203Z,0.87
2022-11-25T06:22:27.805Z,0.97
2022-11-25T06:25:31.261Z,0.73
2022-11-25T06:28:35.012Z,0.63
2022-11-25T06:31:37.606Z,0.56
2022-11-25T06:34:42.760Z,0.56
2022-11-25T06:37:47.292Z,0.55
2022-11-25T06:40:50.423Z,0.60
2022-11-25T06:43:52.952Z,0.73
2022-11-25T06:46:55.725Z,0.68
2022-11-25T06:49:58.587Z,0.79
2022-11-25T06:53:02.453Z,0.83
2022-11-25T06:56:12.743Z,0.83
2022-11-25T06:59:15.504Z,0.85
2022-11-25T07:02:18.900Z,0.87
2022-11-25T07:05:21.688Z,0.97
2022-11-25T07:08:38.295Z,1.03
2022-11-25T07:11:43.444Z,1.12
2022-11-25T07:14:46.264Z,1.21
2022-11-25T07:17:49.001Z,1.32
2022-11-25T07:20:51.573Z,1.43
2022-11-25T07:23:54.407Z,1.55
2022-11-25T07:26:57.058Z,1.66
2022-11-25T07:30:41.152Z,1.81
2022-11-25T07:33:22.380Z,1.87
2022-11-25T07:36:25.575Z,1.89
2022-11-25T07:39:28.155Z,1.95
2022-11-25T07:42:32.009Z,2.06
2022-11-25T07:45:40.221Z,2.17
2022-11-25T07:48:45.245Z,2.27
2022-11-25T07:51:57.284Z,2.40
2022-11-25T07:55:00.690Z,2.51
2022-11-25T07:58:03.486Z,2.63
2022-11-25T08:01:07.935Z,2.87
2022-11-25T08:04:19.816Z,2.88
2022-11-25T08:07:23.740Z,3.00
2022-11-25T08:10:26.765Z,3.10
2022-11-25T08:13:29.472Z,3.22
2022-11-25T08:16:33.230Z,3.37
2022-11-25T08:19:36.834Z,3.46
2022-11-25T08:22:39.924Z,3.54
2022-11-25T08:25:50.094Z,3.87
2022-11-25T08:28:54.507Z,3.84
2022-11-25T08:31:57.337Z,3.96
2022-11-25T08:35:00.525Z,3.98
2022-11-25T08:38:08.257Z,4.07
2022-11-25T08:41:23.172Z,4.27
2022-11-25T08:44:28.359Z,4.23
2022-11-25T08:47:31.502Z,4.67
2022-11-25T08:50:35.120Z,4.59
2022-11-25T08:53:39.431Z,4.58
2022-11-25T08:56:42.010Z,4.65
2022-11-25T08:59:46.031Z,4.77
2022-11-25T09:02:48.792Z,4.79
2022-11-25T09:05:52.691Z,4.95
2022-11-25T09:09:01.831Z,6.02
2022-11-25T09:12:05.285Z,8.73
2022-11-25T09:15:08.520Z,10.34
2022-11-25T09:18:11.709Z,12.71
2022-11-25T09:21:17.644Z,12.42
2022-11-25T09:24:20.971Z,13.02
2022-11-25T09:27:23.561Z,12.55
2022-11-25T09:30:26.475Z,12.97
2022-11-25T09:33:29.116Z,14.59
2022-11-25T09:36:31.836Z,15.42
2022-11-25T09:39:37.718Z,15.53
2022-11-25T09:43:13.375Z,14.87
2022-11-25T09:46:51.288Z,14.62
2022-11-25T09:50:06.182Z,12.15
2022-11-25T09:53:14.905Z,12.45
2022-11-25T09:56:41.165Z,11.43
2022-11-25T10:00:06.810Z,10.81
2022-11-25T10:03:15.713Z,10.57
2022-11-25T10:06:27.255Z,10.55
2022-11-25T10:09:34.031Z,10.45
2022-11-25T10:12:44.715Z,10.86
2022-11-25T10:16:02.121Z,10.14
2022-11-25T10:19:16.043Z,10.18
2022-11-25T10:22:37.800Z,10.62
2022-11-25T10:25:48.762Z,9.91
2022-11-25T10:29:18.269Z,10.20
2022-11-25T10:32:28.343Z,10.54
2022-11-25T10:35:35.624Z,10.03
2022-11-25T10:39:13.450Z,10.29
2022-11-25T10:42:22.009Z,10.35
2022-11-25T10:45:32.007Z,10.78
2022-11-25T10:49:04.917Z,11.31
2022-11-25T10:52:12.329Z,11.23
2022-11-25T10:55:29.807Z,11.40
2022-11-25T10:58:35.461Z,11.27
2022-11-25T11:01:38.427Z,11.34
2022-11-25T11:04:50.161Z,12.18
2022-11-25T11:08:19.014Z,12.98
2022-11-25T11:11:25.196Z,12.34
2022-11-25T11:14:30.225Z,11.65
2022-11-25T11:17:37.071Z,11.35
2022-11-25T11:20:46.900Z,11.39
2022-11-25T11:23:53.390Z,12.38
2022-11-25T11:27:17.881Z,12.96
2022-11-25T11:30:23.945Z,12.29
2022-11-25T11:33:48.897Z,11.63
2022-11-25T11:37:10.494Z,11.21
2022-11-25T11:40:40.177Z,10.74
2022-11-25T11:43:57.055Z,10.76
2022-11-25T11:47:44.424Z,10.50
2022-11-25T11:51:01.126Z,10.54
2022-11-25T11:54:18.088Z,10.46
2022-11-25T11:57:44.153Z,10.10
2022-11-25T12:00:58.186Z,10.22
2022-11-25T12:04:17.017Z,9.95
2022-11-25T12:07:52.846Z,9.86
2022-11-25T12:11:04.627Z,9.88
2022-11-25T12:14:20.083Z,10.07
2022-11-25T12:17:34.755Z,10.08
2022-11-25T12:20:53.095Z,9.89
2022-11-25T12:24:06.970Z,10.09
2022-11-25T12:31:14.777Z,10.01
2022-11-25T12:34:27.758Z,9.70
2022-11-25T12:38:14.776Z,9.74
2022-11-25T12:41:31.053Z,9.68
2022-11-25T12:44:58.350Z,9.16
2022-11-25T12:48:01.644Z,9.22
2022-11-25T12:51:16.468Z,9.01
2022-11-25T12:54:50.260Z,9.08
2022-11-25T12:58:07.960Z,9.00
2022-11-25T13:01:30.207Z,8.77
2022-11-25T13:04:40.870Z,8.76
2022-11-25T13:08:04.021Z,8.68
2022-11-25T13:11:44.264Z,8.70
2022-11-25T13:15:22.636Z,8.59
2022-11-25T13:18:30.866Z,8.49
2022-11-25T13:21:34.084Z,8.61
2022-11-25T13:24:42.048Z,8.56
2022-11-25T13:27:44.896Z,8.37
2022-11-25T13:30:51.647Z,8.43
2022-11-25T13:33:57.707Z,8.28
2022-11-25T13:37:02.722Z,8.31
2022-11-25T13:40:30.381Z,8.27
2022-11-25T13:43:32.885Z,8.19
2022-11-25T13:46:43.360Z,8.17
2022-11-25T13:49:57.140Z,8.18
2022-11-25T13:53:18.641Z,8.22
2022-11-25T13:56:21.134Z,8.19
2022-11-25T13:59:37.031Z,8.11
2022-11-25T14:02:47.284Z,8.05
2022-11-25T14:06:28.339Z,7.93
2022-11-25T14:09:44.366Z,7.92
2022-11-25T14:13:14.119Z,7.92
2022-11-25T14:16:25.810Z,7.91
2022-11-25T14:20:06.640Z,7.90
2022-11-25T14:23:26.224Z,7.99
2022-11-25T14:26:49.639Z,7.80
2022-11-25T14:29:59.865Z,7.69
2022-11-25T14:33:06.628Z,7.57
2022-11-25T14:36:13.383Z,7.35
2022-11-25T14:39:38.238Z,7.26
2022-11-25T14:42:46.098Z,7.14
2022-11-25T14:46:10.458Z,7.07
2022-11-25T14:49:30.772Z,7.01
2022-11-25T14:52:36.950Z,6.97
2022-11-25T14:55:39.460Z,6.90
2022-11-25T14:58:47.577Z,6.84
2022-11-25T15:01:54.012Z,6.84
2022-11-25T15:05:18.718Z,6.77
2022-11-25T15:08:22.228Z,6.68
2022-11-25T15:11:29.149Z,6.61
2022-11-25T15:14:38.415Z,6.55
2022-11-25T15:17:41.263Z,6.52
2022-11-25T15:20:47.840Z,6.56
2022-11-25T15:23:50.936Z,6.60
2022-11-25T15:26:59.286Z,6.54
2022-11-25T15:30:02.073Z,6.53
2022-11-25T15:33:06.911Z,6.50
2022-11-25T15:36:09.931Z,6.52
2022-11-25T15:39:19.858Z,6.50
2022-11-25T15:42:26.821Z,6.48
2022-11-25T15:45:37.540Z,6.41
2022-11-25T15:48:45.197Z,6.42
2022-11-25T15:52:05.836Z,6.33
2022-11-25T15:55:20.445Z,6.39
2022-11-25T15:58:24.410Z,6.19
2022-11-25T16:01:29.809Z,6.20
2022-11-25T16:04:32.725Z,6.14
2022-11-25T16:07:35.274Z,5.99
2022-11-25T16:10:41.872Z,5.91
2022-11-25T16:13:45.332Z,6.04
2022-11-25T16:16:48.498Z,5.84
2022-11-25T16:19:51.055Z,5.86
2022-11-25T16:22:53.802Z,5.66
2022-11-25T16:26:01.579Z,5.61
2022-11-25T16:29:19.132Z,5.43
2022-11-25T16:32:25.081Z,5.34
2022-11-25T16:35:27.845Z,5.26
2022-11-25T16:38:30.253Z,5.09
2022-11-25T16:41:33.975Z,4.99
2022-11-25T16:44:38.389Z,4.92
